< < Back
Terminal Aerodrome Forecast


Current Version              Previous Versions:   1  2  3  4  5  6  7  8  9  

Terminal Aerodrome Forecast

098
FTUS42 KTAE 041700
TAFVLD
TAF
KVLD 041725Z 0418/0518 21010G23KT P6SM SCT040
     FM050100 18004KT 5SM BR BKN015
     FM050700 VRB03KT 1/2SM FG OVC003
     FM051500 20007KT P6SM OVC015=



Latest METAR

110
SAUS70 KWBC 050400 RRK
MTRVLD
METAR KVLD 050353Z AUTO 20006KT 10SM OVC009 21/19 A3006 RMK AO2 SLP185
T02110194 TSNO


USA.gov is the U.S. government's official web portal to all federal, state and local government web resources and services.